Airport View

Enter AWOS ICAO identifier for current METAR.

ex. KFNL

KOLG 300435Z AUTO 00000KT 10SM SCT060 M10/M10 A3015 RMK AO1

30 Oct 2020 04:35

Frequency: 119.6

Phone: 715-378-2031

Other Area AWOS: KHYR - KSUW - KDYT - KDLH

TAF KHYR 292339Z 3000/3024 00000KT P6SM BKN035